Strona główna
METAR-TAF:

METAR-TAF

Lotnisko :

Port lotniczy Hanamaki

Hanamaki, Japonia

Szerokość geograficzna: 39-26N, Długość geograficzna: 141-08E, wysokość: 90 m

Aktualna obserwacja pogody

Raport powstał 1 godzina i 6 minut temu, godzina 05:00 UTC
Wiatr 7 kt od zachodnio-północny zachód, zmienny między zachód i północno-północny zachód
Temperatura 13°C
Wilgotność 47%
Ciśnienie 1022 hPa
Widzialność 10 km lub więcej
Mało chmury na wysokości 3000 ft
Przerywane chmury na wysokości 4500 ft

METAR: RJSI 150500Z 29007KT 260V330 9999 FEW030 BKN045 13/02 Q1022

czas: 15:06 (06:06 UTC)


TAF: brakujący

Obserwacja i prognoza pogody dla ponad 4000 lotnisk (raport METAR i TAF).

Dostępne stacje oznaczono żółtymi i czerwonymi punktami na mapie.

Najedź kursorem aby zobaczyć nazwę stacji.

Kliknij aby zobaczyć obserwacje i prognozy pogody.

Aby zmienić mapę: kliknij na zielony przycisk z czarnym krzyżykiem, aby powiększyć; na zielony przycisk z myślnikiem, aby pomniejszyć; na zielone strzałki, aby przejść do map sąsiednich.


METAR-TAF: